createdAt,value
2023-05-09T00:02:25.522Z,101134.53
2023-05-09T00:04:52.760Z,101138.00
2023-05-09T00:07:19.807Z,101142.31
2023-05-09T00:09:47.177Z,101143.09
2023-05-09T00:12:14.217Z,101147.47
2023-05-09T00:14:41.719Z,101161.84
2023-05-09T00:17:09.715Z,101164.56
2023-05-09T00:19:38.319Z,101164.53
2023-05-09T00:22:05.354Z,101166.34
2023-05-09T00:24:32.414Z,101165.41
2023-05-09T00:26:59.746Z,101166.34
2023-05-09T00:29:26.810Z,101157.44
2023-05-09T00:31:53.891Z,101156.56
2023-05-09T00:34:21.118Z,101151.19
2023-05-09T00:36:48.223Z,101144.06
2023-05-09T00:39:15.693Z,101144.81
2023-05-09T00:41:43.141Z,101133.28
2023-05-09T00:44:10.167Z,101135.06
2023-05-09T00:46:37.648Z,101132.38
2023-05-09T00:49:05.066Z,101126.03
2023-05-09T00:51:33.271Z,101125.00
2023-05-09T00:54:00.481Z,101124.88
2023-05-09T00:56:27.870Z,101121.31
2023-05-09T00:58:55.813Z,101132.84
2023-05-09T01:01:23.239Z,101131.06
2023-05-09T01:03:51.212Z,101140.91
2023-05-09T01:06:43.185Z,101135.75
2023-05-09T01:09:54.842Z,101145.59
2023-05-09T01:12:58.509Z,101140.25
2023-05-09T01:15:36.990Z,101138.47
2023-05-09T01:18:16.555Z,101137.59
2023-05-09T01:21:19.676Z,101136.72
2023-05-09T01:24:45.977Z,101124.13
2023-05-09T01:27:29.118Z,101126.72
2023-05-09T01:30:03.687Z,101119.34
2023-05-09T01:32:36.534Z,101118.34
2023-05-09T01:35:05.732Z,101122.78
2023-05-09T01:37:40.403Z,101128.19
2023-05-09T01:40:15.036Z,101135.41
2023-05-09T01:42:50.198Z,101133.72
2023-05-09T01:45:19.062Z,101123.06
2023-05-09T01:47:47.501Z,101111.38
2023-05-09T01:50:15.767Z,101120.28
2023-05-09T01:52:44.113Z,101113.22
2023-05-09T01:55:12.475Z,101119.56
2023-05-09T01:57:40.713Z,101110.56
2023-05-09T02:00:09.298Z,101098.84
2023-05-09T02:02:37.120Z,101112.09
2023-05-09T02:05:05.019Z,101094.19
2023-05-09T02:07:33.102Z,101103.88
2023-05-09T02:10:02.623Z,101122.78
2023-05-09T02:12:29.705Z,101121.13
2023-05-09T02:14:56.895Z,101117.56
2023-05-09T02:17:24.488Z,101117.53
2023-05-09T02:19:51.900Z,101110.38
2023-05-09T02:22:18.993Z,101107.81
2023-05-09T02:24:46.110Z,101103.22
2023-05-09T02:27:14.863Z,101093.19
2023-05-09T02:29:49.678Z,101089.63
2023-05-09T02:32:23.175Z,101094.84
2023-05-09T02:34:53.355Z,101098.41
2023-05-09T02:37:22.037Z,101096.53
2023-05-09T02:39:49.084Z,101088.63
2023-05-09T02:42:25.366Z,101095.84
2023-05-09T02:44:55.531Z,101121.94
2023-05-09T02:47:23.189Z,101111.25
2023-05-09T02:49:50.939Z,101107.72
2023-05-09T02:52:18.065Z,101109.47
2023-05-09T02:54:45.586Z,101099.50
2023-05-09T02:57:12.673Z,101104.94
2023-05-09T02:59:40.094Z,101105.78
2023-05-09T03:02:07.249Z,101091.50
2023-05-09T03:04:34.286Z,101101.16
2023-05-09T03:07:02.108Z,101092.38
2023-05-09T03:09:29.505Z,101089.75
2023-05-09T03:11:56.897Z,101089.69
2023-05-09T03:14:24.045Z,101080.81
2023-05-09T03:16:51.107Z,101095.91
2023-05-09T03:19:18.494Z,101093.28
2023-05-09T03:21:45.887Z,101094.19
2023-05-09T03:24:13.220Z,101092.44
2023-05-09T03:26:40.730Z,101130.59
2023-05-09T03:29:07.796Z,101124.38
2023-05-09T03:31:35.192Z,101128.72
2023-05-09T03:34:05.837Z,101127.88
2023-05-09T03:36:33.312Z,101138.63
2023-05-09T03:39:00.451Z,101130.59
2023-05-09T03:41:27.504Z,101132.44
2023-05-09T03:43:54.895Z,101134.25
2023-05-09T03:46:22.304Z,101136.97
2023-05-09T03:48:49.710Z,101133.44
2023-05-09T03:51:16.764Z,101138.81
2023-05-09T03:53:47.103Z,101136.25
2023-05-09T03:56:14.834Z,101137.09
2023-05-09T03:58:42.276Z,101142.44
2023-05-09T04:01:10.176Z,101140.72
2023-05-09T04:03:43.080Z,101141.69
2023-05-09T04:06:10.612Z,101140.88
2023-05-09T04:08:38.125Z,101139.03
2023-05-09T04:11:06.244Z,101142.69
2023-05-09T04:13:34.198Z,101149.72
2023-05-09T04:16:01.849Z,101154.19
2023-05-09T04:18:29.261Z,101145.34
2023-05-09T04:20:56.757Z,101157.00
2023-05-09T04:23:24.351Z,101157.00
2023-05-09T04:25:52.189Z,101159.69
2023-05-09T04:28:19.554Z,101167.75
2023-05-09T04:30:46.628Z,101173.06
2023-05-09T04:33:13.554Z,101177.44
2023-05-09T04:35:41.322Z,101181.94
2023-05-09T04:38:08.363Z,101192.69
2023-05-09T04:40:35.627Z,101197.19
2023-05-09T04:43:03.306Z,101191.88
2023-05-09T04:45:30.910Z,101195.44
2023-05-09T04:47:58.593Z,101186.59
2023-05-09T04:50:26.226Z,101189.28
2023-05-09T04:52:53.570Z,101204.44
2023-05-09T04:55:20.759Z,101195.56
2023-05-09T04:57:48.263Z,101194.75
2023-05-09T05:00:16.749Z,101190.31
2023-05-09T05:02:44.388Z,101170.69
2023-05-09T05:05:12.748Z,101165.38
2023-05-09T05:07:40.278Z,101154.75
2023-05-09T05:10:08.161Z,101165.53
2023-05-09T05:12:35.793Z,101161.06
2023-05-09T05:15:03.232Z,101172.72
2023-05-09T05:17:30.659Z,101176.22
2023-05-09T05:19:58.126Z,101185.16
2023-05-09T05:22:25.217Z,101188.75
2023-05-09T05:24:52.230Z,101198.53
2023-05-09T05:27:19.644Z,101195.88
2023-05-09T05:29:46.974Z,101191.47
2023-05-09T05:32:14.302Z,101203.03
2023-05-09T05:34:41.321Z,101207.47
2023-05-09T05:37:08.778Z,101219.00
2023-05-09T05:39:36.268Z,101216.31
2023-05-09T05:42:03.783Z,101232.34
2023-05-09T05:44:31.185Z,101222.59
2023-05-09T05:46:58.298Z,101236.78
2023-05-09T05:49:25.473Z,101241.28
2023-05-09T05:51:52.516Z,101245.75
2023-05-09T05:54:19.963Z,101249.38
2023-05-09T05:56:47.429Z,101246.63
2023-05-09T05:59:14.858Z,101261.78
2023-05-09T06:01:42.328Z,101259.22
2023-05-09T06:04:09.850Z,101264.56
2023-05-09T06:06:37.520Z,101264.59
2023-05-09T06:09:04.652Z,101293.97
2023-05-09T06:11:32.048Z,101283.31
2023-05-09T06:13:59.004Z,101294.00
2023-05-09T06:16:26.093Z,101277.94
2023-05-09T06:18:55.738Z,101285.97
2023-05-09T06:21:23.607Z,101305.53
2023-05-09T06:24:04.272Z,101307.31
2023-05-09T06:26:35.811Z,101318.00
2023-05-09T06:29:04.163Z,101306.44
2023-05-09T06:31:31.580Z,101307.34
2023-05-09T06:33:58.987Z,101312.72
2023-05-09T06:36:26.600Z,101306.47
2023-05-09T06:38:54.009Z,101313.63
2023-05-09T06:41:21.950Z,101297.63
2023-05-09T06:43:50.081Z,101308.31
2023-05-09T06:46:17.761Z,101318.09
2023-05-09T06:48:45.379Z,101333.28
2023-05-09T06:51:13.021Z,101332.38
2023-05-09T06:53:41.220Z,101345.78
2023-05-09T06:56:08.306Z,101340.53
2023-05-09T06:58:36.519Z,101321.75
2023-05-09T07:01:04.650Z,101330.78
2023-05-09T07:03:32.098Z,101337.03
2023-05-09T07:06:00.030Z,101344.16
2023-05-09T07:08:27.505Z,101322.81
2023-05-09T07:10:54.971Z,101324.59
2023-05-09T07:13:22.540Z,101333.50
2023-05-09T07:15:50.093Z,101329.06
2023-05-09T07:18:17.545Z,101328.16
2023-05-09T07:20:44.848Z,101328.16
2023-05-09T07:23:12.208Z,101314.81
2023-05-09T07:25:39.651Z,101292.56
2023-05-09T07:28:07.203Z,101280.09
2023-05-09T07:30:34.594Z,101278.31
2023-05-09T07:33:02.130Z,101272.00
2023-05-09T07:35:31.038Z,101255.91
2023-05-09T07:37:58.390Z,101243.44
2023-05-09T07:40:25.946Z,101214.97
2023-05-09T07:42:55.213Z,101192.75
2023-05-09T07:45:23.841Z,101191.66
2023-05-09T07:47:51.607Z,101174.56
2023-05-09T07:50:19.059Z,101139.06
2023-05-09T07:52:46.635Z,101132.66
2023-05-09T07:55:14.597Z,101097.91
2023-05-09T07:57:42.304Z,101071.13
2023-05-09T08:00:10.800Z,101058.50
2023-05-09T08:02:38.339Z,101051.94
2023-05-09T08:05:06.338Z,101016.41
2023-05-09T08:07:33.718Z,100995.94
2023-05-09T08:10:01.168Z,100945.47
2023-05-09T08:12:28.639Z,100949.69
2023-05-09T08:14:56.048Z,100940.59
2023-05-09T08:17:23.493Z,100924.63
2023-05-09T08:19:50.892Z,100893.59
2023-05-09T08:22:19.531Z,100900.44
2023-05-09T08:24:47.653Z,100886.22
2023-05-09T08:27:15.751Z,100854.44
2023-05-09T08:29:43.879Z,100845.44
2023-05-09T08:32:11.340Z,100839.94
2023-05-09T08:34:38.834Z,100815.94
2023-05-09T08:37:06.371Z,100820.84
2023-05-09T08:39:35.218Z,100812.44
2023-05-09T08:42:03.489Z,100813.09
2023-05-09T08:44:31.901Z,100788.31
2023-05-09T08:47:04.537Z,100788.03
2023-05-09T08:49:33.519Z,100739.31
2023-05-09T08:52:01.127Z,100717.28
2023-05-09T08:54:28.894Z,100735.59
2023-05-09T08:56:56.488Z,100723.16
2023-05-09T08:59:24.154Z,100715.06
2023-05-09T09:01:52.502Z,100702.59
2023-05-09T09:04:20.106Z,100707.41
2023-05-09T09:06:47.751Z,100698.91
2023-05-09T09:09:17.636Z,100689.66
2023-05-09T09:11:45.606Z,100669.91
2023-05-09T09:14:18.247Z,100658.78
2023-05-09T09:16:48.863Z,100652.09
2023-05-09T09:19:18.391Z,100619.06
2023-05-09T09:21:47.521Z,100573.28
2023-05-09T09:24:15.550Z,100603.69
2023-05-09T09:26:51.126Z,100607.06
2023-05-09T09:29:20.658Z,100597.69
2023-05-09T09:31:53.953Z,100561.06
2023-05-09T09:34:24.278Z,100554.25
2023-05-09T09:36:51.813Z,100506.97
2023-05-09T09:39:19.530Z,100502.41
2023-05-09T09:41:47.198Z,100508.91
2023-05-09T09:44:21.980Z,100449.66
2023-05-09T09:46:56.572Z,100404.94
2023-05-09T09:49:27.028Z,100421.19
2023-05-09T09:51:56.426Z,100440.31
2023-05-09T09:54:27.466Z,100426.22
2023-05-09T09:56:55.373Z,100400.06
2023-05-09T09:59:27.472Z,100437.03
2023-05-09T10:02:08.418Z,100378.91
2023-05-09T10:04:38.042Z,100318.56
2023-05-09T10:07:12.888Z,100309.81
2023-05-09T10:09:43.877Z,100300.94
2023-05-09T10:12:11.766Z,100313.19
2023-05-09T10:14:42.442Z,100280.44
2023-05-09T10:17:14.970Z,100278.13
2023-05-09T10:19:47.925Z,100253.22
2023-05-09T10:22:17.945Z,100234.06
2023-05-09T10:24:57.796Z,100202.44
2023-05-09T10:27:28.022Z,100212.09
2023-05-09T10:30:12.754Z,100244.47
2023-05-09T10:32:43.391Z,100246.00
2023-05-09T10:35:14.051Z,100255.94
2023-05-09T10:37:42.242Z,100249.38
2023-05-09T10:40:15.247Z,100196.03
2023-05-09T10:42:45.711Z,100198.13
2023-05-09T10:45:14.246Z,100214.94
2023-05-09T10:47:44.065Z,100163.84
2023-05-09T10:50:15.524Z,100141.41
2023-05-09T10:53:24.404Z,100104.97
2023-05-09T10:55:57.436Z,100121.91
2023-05-09T10:58:30.512Z,100055.47
2023-05-09T11:01:01.698Z,100092.63
2023-05-09T11:04:09.126Z,100086.25
2023-05-09T11:06:49.471Z,100084.56
2023-05-09T11:09:41.644Z,100036.84
2023-05-09T11:12:10.227Z,100050.38
2023-05-09T11:14:47.203Z,100054.88
2023-05-09T11:17:23.297Z,100031.47
2023-05-09T11:19:50.709Z,100002.59
2023-05-09T11:22:24.626Z,100062.94
2023-05-09T11:25:04.825Z,100068.66
2023-05-09T11:27:45.279Z,100091.31
2023-05-09T11:30:15.613Z,100131.06
2023-05-09T11:32:58.996Z,100142.19
2023-05-09T11:35:29.390Z,100167.41
2023-05-09T11:38:06.855Z,100179.75
2023-05-09T11:40:35.318Z,100207.97
2023-05-09T11:43:03.250Z,100218.69
2023-05-09T11:45:33.256Z,100225.81
2023-05-09T11:48:02.268Z,100252.97
2023-05-09T11:50:29.932Z,100260.09
2023-05-09T11:52:57.515Z,100258.03
2023-05-09T11:55:32.755Z,100230.19
2023-05-09T11:58:00.584Z,100203.22
2023-05-09T12:00:28.044Z,100209.88
2023-05-09T12:02:55.294Z,100191.25
2023-05-09T12:05:23.853Z,100202.97
2023-05-09T12:07:52.595Z,100201.53
2023-05-09T12:10:23.961Z,100175.66
2023-05-09T12:12:55.607Z,100152.03
2023-05-09T12:15:23.312Z,100171.25
2023-05-09T12:18:08.632Z,100146.56
2023-05-09T12:20:48.054Z,100146.09
2023-05-09T12:23:16.074Z,100154.75
2023-05-09T12:25:57.063Z,100115.59
2023-05-09T12:28:25.816Z,100115.31
2023-05-09T12:30:54.142Z,100077.91
2023-05-09T12:33:22.458Z,100080.53
2023-05-09T12:36:11.545Z,100064.94
2023-05-09T12:38:39.814Z,100083.31
2023-05-09T12:41:18.221Z,100063.22
2023-05-09T12:43:59.180Z,100048.81
2023-05-09T12:46:26.701Z,100048.00
2023-05-09T12:48:54.333Z,100056.69
2023-05-09T12:51:23.026Z,100038.84
2023-05-09T12:53:50.634Z,100032.09
2023-05-09T12:56:21.053Z,99979.69
2023-05-09T12:58:55.968Z,99925.59
2023-05-09T13:01:28.267Z,99917.31
2023-05-09T13:04:04.887Z,99917.94
2023-05-09T13:06:32.558Z,99924.44
2023-05-09T13:09:02.548Z,99910.44
2023-05-09T13:11:30.295Z,99897.00
2023-05-09T13:13:58.093Z,99913.59
2023-05-09T13:16:25.436Z,99900.97
2023-05-09T13:18:52.529Z,99897.34
2023-05-09T13:21:20.281Z,99880.03
2023-05-09T13:23:49.559Z,99857.06
2023-05-09T13:26:17.052Z,99839.50
2023-05-09T13:28:44.504Z,99814.81
2023-05-09T13:31:12.050Z,99827.53
2023-05-09T13:33:39.555Z,99829.13
2023-05-09T13:36:07.548Z,99776.56
2023-05-09T13:38:38.924Z,99776.97
2023-05-09T13:41:06.925Z,99789.25
2023-05-09T13:43:34.905Z,99771.97
2023-05-09T13:46:02.493Z,99767.38
2023-05-09T13:48:29.536Z,99740.41
2023-05-09T13:50:57.857Z,99720.69
2023-05-09T13:53:25.279Z,99687.75
2023-05-09T13:55:52.859Z,99708.84
2023-05-09T13:58:20.306Z,99683.09
2023-05-09T14:00:47.669Z,99655.22
2023-05-09T14:03:14.716Z,99675.94
2023-05-09T14:05:43.017Z,99663.25
2023-05-09T14:08:10.196Z,99649.06
2023-05-09T14:10:37.673Z,99675.00
2023-05-09T14:13:04.861Z,99690.09
2023-05-09T14:15:32.296Z,99690.75
2023-05-09T14:17:59.825Z,99659.25
2023-05-09T14:20:27.637Z,99694.44
2023-05-09T14:22:59.727Z,99666.31
2023-05-09T14:25:27.473Z,99635.66
2023-05-09T14:27:54.977Z,99628.31
2023-05-09T14:30:22.966Z,99634.13
2023-05-09T14:32:50.379Z,99603.19
2023-05-09T14:35:18.659Z,99587.38
2023-05-09T14:37:46.582Z,99619.75
2023-05-09T14:40:14.834Z,99592.94
2023-05-09T14:42:42.634Z,99585.34
2023-05-09T14:45:13.065Z,99603.19
2023-05-09T14:47:41.580Z,99582.16
2023-05-09T14:50:11.564Z,99612.50
2023-05-09T14:52:39.066Z,99587.78
2023-05-09T14:55:07.500Z,99568.56
2023-05-09T14:57:35.121Z,99560.38
2023-05-09T15:00:16.588Z,99582.63
2023-05-09T15:02:47.403Z,99568.53
2023-05-09T15:05:16.971Z,99546.03
2023-05-09T15:07:44.037Z,99557.88
2023-05-09T15:10:11.561Z,99519.13
2023-05-09T15:12:38.610Z,99530.28
2023-05-09T15:15:25.954Z,99513.63
2023-05-09T15:17:53.502Z,99528.72
2023-05-09T15:20:21.309Z,99482.84
2023-05-09T15:22:50.174Z,99472.56
2023-05-09T15:25:18.061Z,99463.31
2023-05-09T15:27:45.661Z,99460.47
2023-05-09T15:30:13.770Z,99487.06
2023-05-09T15:32:41.605Z,99503.00
2023-05-09T15:35:09.191Z,99444.69
2023-05-09T15:37:36.756Z,99421.25
2023-05-09T15:40:07.067Z,99414.28
2023-05-09T15:42:35.058Z,99416.31
2023-05-09T15:45:03.596Z,99425.69
2023-05-09T15:47:31.155Z,99401.94
2023-05-09T15:49:58.531Z,99401.88
2023-05-09T15:52:26.111Z,99393.09
2023-05-09T15:54:56.070Z,99373.88
2023-05-09T15:57:25.246Z,99353.97
2023-05-09T15:59:55.282Z,99377.19
2023-05-09T16:02:25.706Z,99369.38
2023-05-09T16:04:53.632Z,99356.97
2023-05-09T16:07:21.176Z,99356.13
2023-05-09T16:09:48.603Z,99377.19
2023-05-09T16:12:16.194Z,99380.50
2023-05-09T16:14:43.698Z,99362.72
2023-05-09T16:17:11.546Z,99392.53
2023-05-09T16:19:38.997Z,99415.03
2023-05-09T16:22:06.403Z,99406.53
2023-05-09T16:24:33.948Z,99422.41
2023-05-09T16:27:01.395Z,99435.84
2023-05-09T16:29:28.940Z,99440.19
2023-05-09T16:31:56.303Z,99442.66
2023-05-09T16:34:23.730Z,99427.72
2023-05-09T16:36:52.398Z,99421.03
2023-05-09T16:39:19.418Z,99414.19
2023-05-09T16:41:46.563Z,99410.81
2023-05-09T16:44:15.433Z,99397.94
2023-05-09T16:46:43.091Z,99389.44
2023-05-09T16:49:10.510Z,99383.41
2023-05-09T16:51:37.515Z,99396.03
2023-05-09T16:54:04.563Z,99402.94
2023-05-09T16:56:33.365Z,99410.16
2023-05-09T16:59:01.051Z,99422.59
2023-05-09T17:01:29.316Z,99423.56
2023-05-09T17:03:56.642Z,99429.78
2023-05-09T17:06:23.837Z,99436.19
2023-05-09T17:08:51.603Z,99434.66
2023-05-09T17:11:19.356Z,99438.59
2023-05-09T17:13:46.787Z,99446.91
2023-05-09T17:16:14.305Z,99459.88
2023-05-09T17:18:47.417Z,99480.63
2023-05-09T17:21:15.667Z,99494.41
2023-05-09T17:23:43.492Z,99500.31
2023-05-09T17:26:10.648Z,99516.56
2023-05-09T17:28:38.307Z,99517.34
2023-05-09T17:31:05.909Z,99512.72
2023-05-09T17:33:33.334Z,99522.25
2023-05-09T17:36:00.772Z,99546.25
2023-05-09T17:38:27.803Z,99567.03
2023-05-09T17:40:55.240Z,99599.00
2023-05-09T17:43:24.100Z,99635.34
2023-05-09T17:45:52.562Z,99685.34
2023-05-09T17:48:20.171Z,99718.00
2023-05-09T17:50:47.566Z,99738.50
2023-05-09T17:53:15.040Z,99771.84
2023-05-09T17:55:42.807Z,99782.53
2023-05-09T17:58:10.206Z,99811.34
2023-05-09T18:00:37.777Z,99829.50
2023-05-09T18:03:05.827Z,99849.75
2023-05-09T18:05:34.064Z,99863.19
2023-05-09T18:08:01.913Z,99878.38
2023-05-09T18:10:29.425Z,99885.56
2023-05-09T18:12:57.285Z,99910.38
2023-05-09T18:15:26.334Z,99924.59
2023-05-09T18:17:54.924Z,99938.97
2023-05-09T18:20:22.577Z,99947.88
2023-05-09T18:22:49.655Z,99959.81
2023-05-09T18:25:17.399Z,99971.09
2023-05-09T18:27:44.784Z,99980.84
2023-05-09T18:30:12.712Z,99998.41
2023-05-09T18:32:40.671Z,99995.03
2023-05-09T18:35:08.808Z,99996.78
2023-05-09T18:37:37.077Z,99999.69
2023-05-09T18:40:08.097Z,100005.78
2023-05-09T18:42:35.818Z,99994.50
2023-05-09T18:45:05.971Z,100010.47
2023-05-09T18:47:33.391Z,100007.84
2023-05-09T18:50:02.921Z,100015.97
2023-05-09T18:52:32.119Z,100013.34
2023-05-09T18:54:59.185Z,100015.13
2023-05-09T18:57:26.264Z,100023.13
2023-05-09T18:59:53.654Z,100025.75
2023-05-09T19:02:21.177Z,100026.03
2023-05-09T19:04:50.416Z,100026.03
2023-05-09T19:07:17.900Z,100021.63
2023-05-09T19:09:45.813Z,100022.38
2023-05-09T19:12:12.833Z,100033.94
2023-05-09T19:14:40.305Z,100028.66
2023-05-09T19:17:07.849Z,100042.03
2023-05-09T19:19:34.887Z,100050.78
2023-05-09T19:22:01.835Z,100053.50
2023-05-09T19:24:29.213Z,100057.81
2023-05-09T19:26:56.254Z,100052.78
2023-05-09T19:29:23.211Z,100060.72
2023-05-09T19:31:50.256Z,100050.22
2023-05-09T19:34:17.300Z,100054.72
2023-05-09T19:36:44.246Z,100056.44
2023-05-09T19:39:11.374Z,100056.56
2023-05-09T19:41:38.350Z,100068.22
2023-05-09T19:44:07.274Z,100066.50
2023-05-09T19:46:35.436Z,100078.81
2023-05-09T19:49:02.643Z,100077.25
2023-05-09T19:51:29.839Z,100085.19
2023-05-09T19:53:56.801Z,100085.28
2023-05-09T19:56:23.880Z,100095.84
2023-05-09T19:58:50.848Z,100098.53
2023-05-09T20:01:19.404Z,100097.75
2023-05-09T20:03:47.172Z,100093.38
2023-05-09T20:06:14.318Z,100095.16
2023-05-09T20:08:41.289Z,100104.94
2023-05-09T20:11:08.307Z,100104.00
2023-05-09T20:13:35.253Z,100116.44
2023-05-09T20:16:03.577Z,100122.75
2023-05-09T20:18:33.528Z,100116.59
2023-05-09T20:21:02.009Z,100122.81
2023-05-09T20:23:30.107Z,100122.81
2023-05-09T20:25:57.720Z,100124.53
2023-05-09T20:28:25.327Z,100129.09
2023-05-09T20:30:52.371Z,100130.88
2023-05-09T20:33:19.806Z,100134.41
2023-05-09T20:35:49.189Z,100138.84
2023-05-09T20:38:16.383Z,100148.56
2023-05-09T20:40:43.873Z,100146.81
2023-05-09T20:43:11.278Z,100151.34
2023-05-09T20:45:38.445Z,100147.88
2023-05-09T20:48:06.770Z,100159.34
2023-05-09T20:50:33.809Z,100156.81
2023-05-09T20:53:01.162Z,100149.72
2023-05-09T20:55:28.224Z,100159.56
2023-05-09T20:58:00.987Z,100160.44
2023-05-09T21:00:28.522Z,100164.06
2023-05-09T21:02:58.560Z,100146.34
2023-05-09T21:05:26.498Z,100157.00
2023-05-09T21:07:54.040Z,100145.47
2023-05-09T21:10:21.404Z,100159.66
2023-05-09T21:12:48.889Z,100158.78
2023-05-09T21:15:16.577Z,100165.00
2023-05-09T21:17:43.845Z,100158.88
2023-05-09T21:20:11.578Z,100157.16
2023-05-09T21:22:39.033Z,100162.44
2023-05-09T21:25:06.596Z,100171.25
2023-05-09T21:27:33.664Z,100172.16
2023-05-09T21:30:01.156Z,100173.13
2023-05-09T21:32:28.792Z,100182.88
2023-05-09T21:34:55.827Z,100186.47
2023-05-09T21:37:22.934Z,100187.38
2023-05-09T21:39:50.094Z,100185.66
2023-05-09T21:42:17.064Z,100193.63
2023-05-09T21:44:44.501Z,100192.72
2023-05-09T21:47:11.813Z,100211.38
2023-05-09T21:49:39.658Z,100213.13
2023-05-09T21:52:07.022Z,100219.34
2023-05-09T21:54:34.394Z,100231.75
2023-05-09T21:57:01.368Z,100224.63
2023-05-09T21:59:28.363Z,100216.75
2023-05-09T22:01:55.386Z,100231.84
2023-05-09T22:04:22.731Z,100239.81
2023-05-09T22:06:49.703Z,100245.97
2023-05-09T22:09:17.146Z,100238.91
2023-05-09T22:11:44.220Z,100243.31
2023-05-09T22:14:11.887Z,100245.09
2023-05-09T22:16:39.262Z,100246.00
2023-05-09T22:19:06.439Z,100249.59
2023-05-09T22:21:33.853Z,100247.88
2023-05-09T22:24:01.389Z,100245.25
2023-05-09T22:26:28.674Z,100246.19
2023-05-09T22:28:55.953Z,100252.41
2023-05-09T22:31:23.217Z,100247.16
2023-05-09T22:33:50.656Z,100253.34
2023-05-09T22:36:18.267Z,100247.16
2023-05-09T22:38:46.001Z,100256.00
2023-05-09T22:41:13.894Z,100257.78
2023-05-09T22:43:41.749Z,100262.25
2023-05-09T22:46:09.344Z,100254.28
2023-05-09T22:48:36.789Z,100257.84
2023-05-09T22:51:04.301Z,100255.22
2023-05-09T22:53:33.014Z,100249.03
2023-05-09T22:56:00.216Z,100255.19
2023-05-09T22:58:27.593Z,100251.66
2023-05-09T23:00:55.180Z,100250.78
2023-05-09T23:03:23.191Z,100249.91
2023-05-09T23:05:51.214Z,100248.16
2023-05-09T23:08:18.766Z,100246.44
2023-05-09T23:10:45.939Z,100254.44
2023-05-09T23:13:13.612Z,100245.56
2023-05-09T23:15:40.862Z,100252.69
2023-05-09T23:18:08.247Z,100255.34
2023-05-09T23:20:37.174Z,100244.75
2023-05-09T23:23:04.860Z,100244.78
2023-05-09T23:25:32.663Z,100239.50
2023-05-09T23:27:59.891Z,100247.47
2023-05-09T23:30:27.467Z,100252.78
2023-05-09T23:32:56.379Z,100246.59
2023-05-09T23:35:26.320Z,100250.13
2023-05-09T23:37:53.920Z,100245.72
2023-05-09T23:40:21.653Z,100243.97
2023-05-09T23:42:48.956Z,100246.66
2023-05-09T23:45:16.532Z,100243.09
2023-05-09T23:47:44.258Z,100240.47
2023-05-09T23:50:12.485Z,100239.59
2023-05-09T23:52:41.974Z,100229.00
2023-05-09T23:55:09.829Z,100228.09
2023-05-09T23:57:36.785Z,100229.91
